createdAt,value
2023-02-09T00:00:17.685Z,89.15
2023-02-09T00:02:44.359Z,89.08
2023-02-09T00:05:11.604Z,88.87
2023-02-09T00:07:38.347Z,89.21
2023-02-09T00:10:06.330Z,89.02
2023-02-09T00:12:52.503Z,88.98
2023-02-09T00:15:19.129Z,89.22
2023-02-09T00:17:45.774Z,89.41
2023-02-09T00:20:12.557Z,89.45
2023-02-09T00:22:39.165Z,90.13
2023-02-09T00:25:06.084Z,90.25
2023-02-09T00:27:35.776Z,90.05
2023-02-09T00:30:02.754Z,89.77
2023-02-09T00:32:32.815Z,89.60
2023-02-09T00:34:59.328Z,89.81
2023-02-09T00:37:26.031Z,89.64
2023-02-09T00:39:52.628Z,89.15
2023-02-09T00:42:19.285Z,89.05
2023-02-09T00:44:46.318Z,89.17
2023-02-09T00:47:13.028Z,89.37
2023-02-09T00:49:40.354Z,89.18
2023-02-09T00:52:08.930Z,88.28
2023-02-09T00:54:36.486Z,88.61
2023-02-09T00:57:05.930Z,88.90
2023-02-09T00:59:34.813Z,89.08
2023-02-09T01:02:01.950Z,89.15
2023-02-09T01:04:28.614Z,89.64
2023-02-09T01:06:55.342Z,89.50
2023-02-09T01:09:22.125Z,90.23
2023-02-09T01:11:48.799Z,90.55
2023-02-09T01:14:15.327Z,90.09
2023-02-09T01:16:42.136Z,89.65
2023-02-09T01:19:12.196Z,90.43
2023-02-09T01:21:39.119Z,90.84
2023-02-09T01:24:06.112Z,92.00
2023-02-09T01:26:32.733Z,92.78
2023-02-09T01:28:59.272Z,92.91
2023-02-09T01:31:31.816Z,93.53
2023-02-09T01:34:01.181Z,94.14
2023-02-09T01:36:28.910Z,93.57
2023-02-09T01:38:57.093Z,94.65
2023-02-09T01:41:24.355Z,94.48
2023-02-09T01:44:28.472Z,94.89
2023-02-09T01:46:55.234Z,95.01
2023-02-09T01:49:26.315Z,95.56
2023-02-09T01:52:00.852Z,96.38
2023-02-09T01:54:33.061Z,95.93
2023-02-09T01:57:05.110Z,95.99
2023-02-09T01:59:34.709Z,95.22
2023-02-09T02:02:01.432Z,95.39
2023-02-09T02:04:29.107Z,96.24
2023-02-09T02:07:02.265Z,96.56
2023-02-09T02:09:29.778Z,96.06
2023-02-09T02:11:56.808Z,95.59
2023-02-09T02:14:38.235Z,95.28
2023-02-09T02:17:23.676Z,95.53
2023-02-09T02:20:27.170Z,95.50
2023-02-09T02:23:21.084Z,94.70
2023-02-09T02:26:12.134Z,94.38
2023-02-09T02:28:42.701Z,94.96
2023-02-09T02:31:31.236Z,94.73
2023-02-09T02:34:12.875Z,94.53
2023-02-09T02:37:01.460Z,94.78
2023-02-09T02:39:46.226Z,95.86
2023-02-09T02:42:50.183Z,96.26
2023-02-09T02:45:35.772Z,96.18
2023-02-09T02:48:08.433Z,96.57
2023-02-09T02:50:40.254Z,96.72
2023-02-09T02:53:10.741Z,96.64
2023-02-09T02:55:39.265Z,96.57
2023-02-09T02:58:09.401Z,96.17
2023-02-09T03:00:45.249Z,96.00
2023-02-09T03:03:19.918Z,96.01
2023-02-09T03:05:48.228Z,96.22
2023-02-09T03:08:14.879Z,95.73
2023-02-09T03:10:42.610Z,95.64
2023-02-09T03:13:21.504Z,95.43
2023-02-09T03:16:20.718Z,95.30
2023-02-09T03:19:10.514Z,95.59
2023-02-09T03:21:49.411Z,95.72
2023-02-09T03:24:44.888Z,96.39
2023-02-09T03:27:47.615Z,96.31
2023-02-09T03:30:17.507Z,95.91
2023-02-09T03:32:46.914Z,95.87
2023-02-09T03:35:18.033Z,95.87
2023-02-09T03:37:44.621Z,95.95
2023-02-09T03:40:11.629Z,95.15
2023-02-09T03:42:38.294Z,94.72
2023-02-09T03:45:08.174Z,94.42
2023-02-09T03:47:35.054Z,93.67
2023-02-09T03:50:01.538Z,91.85
2023-02-09T03:52:27.987Z,90.33
2023-02-09T03:54:54.561Z,88.86
2023-02-09T03:57:21.204Z,87.37
2023-02-09T03:59:47.974Z,86.66
2023-02-09T04:02:14.778Z,86.24
2023-02-09T04:04:41.532Z,85.17
2023-02-09T04:07:08.244Z,85.00
2023-02-09T04:09:35.050Z,84.33
2023-02-09T04:12:01.638Z,84.09
2023-02-09T04:14:28.265Z,83.90
2023-02-09T04:16:55.065Z,83.73
2023-02-09T04:19:21.738Z,83.25
2023-02-09T04:21:48.441Z,83.58
2023-02-09T04:24:15.131Z,83.42
2023-02-09T04:26:41.826Z,82.64
2023-02-09T04:29:08.413Z,82.76
2023-02-09T04:31:35.283Z,81.97
2023-02-09T04:34:02.230Z,81.82
2023-02-09T04:36:29.039Z,81.38
2023-02-09T04:38:55.688Z,81.37
2023-02-09T04:41:22.394Z,80.74
2023-02-09T04:43:49.306Z,80.67
2023-02-09T04:46:18.083Z,80.97
2023-02-09T04:48:45.705Z,80.50
2023-02-09T04:51:12.323Z,80.91
2023-02-09T04:53:38.931Z,80.57
2023-02-09T04:56:06.048Z,80.39
2023-02-09T04:58:51.347Z,80.51
2023-02-09T05:01:27.253Z,80.29
2023-02-09T05:03:53.984Z,80.69
2023-02-09T05:06:21.286Z,81.61
2023-02-09T05:08:48.940Z,81.95
2023-02-09T05:11:15.624Z,81.76
2023-02-09T05:13:42.656Z,81.39
2023-02-09T05:16:13.712Z,80.80
2023-02-09T05:18:40.336Z,80.50
2023-02-09T05:21:07.054Z,80.47
2023-02-09T05:23:33.697Z,81.28
2023-02-09T05:26:00.882Z,80.92
2023-02-09T05:28:27.689Z,81.18
2023-02-09T05:30:54.352Z,81.08
2023-02-09T05:33:22.476Z,81.50
2023-02-09T05:35:50.511Z,82.02
2023-02-09T05:38:17.283Z,82.13
2023-02-09T05:40:45.247Z,81.94
2023-02-09T05:43:12.061Z,81.47
2023-02-09T05:45:38.992Z,81.62
2023-02-09T05:48:05.797Z,80.62
2023-02-09T05:50:32.469Z,80.19
2023-02-09T05:53:00.272Z,79.75
2023-02-09T05:55:26.826Z,79.14
2023-02-09T05:57:53.336Z,79.19
2023-02-09T06:00:20.876Z,78.98
2023-02-09T06:02:47.660Z,79.39
2023-02-09T06:05:14.447Z,79.76
2023-02-09T06:07:41.052Z,79.79
2023-02-09T06:10:08.183Z,80.11
2023-02-09T06:12:34.781Z,80.18
2023-02-09T06:15:01.461Z,80.33
2023-02-09T06:17:28.234Z,80.68
2023-02-09T06:19:54.814Z,80.92
2023-02-09T06:22:21.509Z,81.26
2023-02-09T06:24:48.246Z,81.07
2023-02-09T06:27:14.919Z,81.11
2023-02-09T06:29:41.742Z,81.24
2023-02-09T06:32:08.568Z,81.47
2023-02-09T06:34:35.318Z,81.45
2023-02-09T06:37:01.898Z,81.33
2023-02-09T06:39:29.686Z,81.00
2023-02-09T06:41:56.306Z,81.06
2023-02-09T06:44:22.911Z,80.94
2023-02-09T06:46:49.771Z,80.98
2023-02-09T06:49:16.591Z,81.51
2023-02-09T06:51:43.281Z,81.24
2023-02-09T06:54:09.845Z,80.76
2023-02-09T06:56:36.518Z,79.61
2023-02-09T06:59:03.482Z,79.35
2023-02-09T07:01:30.119Z,78.47
2023-02-09T07:03:56.774Z,77.90
2023-02-09T07:06:23.936Z,77.55
2023-02-09T07:08:50.931Z,77.06
2023-02-09T07:11:19.115Z,77.33
2023-02-09T07:13:46.817Z,76.84
2023-02-09T07:16:14.448Z,76.90
2023-02-09T07:18:41.656Z,76.85
2023-02-09T07:21:11.802Z,76.31
2023-02-09T07:23:39.450Z,76.39
2023-02-09T07:26:09.066Z,75.78
2023-02-09T07:28:36.495Z,75.78
2023-02-09T07:31:05.796Z,75.77
2023-02-09T07:33:32.597Z,75.63
2023-02-09T07:35:59.529Z,74.65
2023-02-09T07:38:26.664Z,74.42
2023-02-09T07:40:53.566Z,74.37
2023-02-09T07:43:20.334Z,75.38
2023-02-09T07:45:47.293Z,74.54
2023-02-09T07:48:16.976Z,74.90
2023-02-09T07:50:50.694Z,74.01
2023-02-09T07:53:17.413Z,73.94
2023-02-09T07:55:44.214Z,73.21
2023-02-09T07:58:11.082Z,73.00
2023-02-09T08:00:37.936Z,73.08
2023-02-09T08:03:05.762Z,72.94
2023-02-09T08:05:41.721Z,72.52
2023-02-09T08:08:08.434Z,71.90
2023-02-09T08:10:35.328Z,72.03
2023-02-09T08:13:04.627Z,72.28
2023-02-09T08:15:37.857Z,71.20
2023-02-09T08:18:12.471Z,71.09
2023-02-09T08:20:40.051Z,69.81
2023-02-09T08:23:11.003Z,69.46
2023-02-09T08:25:38.065Z,68.69
2023-02-09T08:28:05.779Z,68.43
2023-02-09T08:30:33.888Z,67.27
2023-02-09T08:33:01.054Z,67.36
2023-02-09T08:35:30.269Z,66.76
2023-02-09T08:38:00.775Z,66.76
2023-02-09T08:40:27.432Z,66.12
2023-02-09T08:42:54.400Z,66.63
2023-02-09T08:45:21.204Z,66.42
2023-02-09T08:47:47.820Z,65.89
2023-02-09T08:50:14.617Z,66.55
2023-02-09T08:52:41.500Z,66.01
2023-02-09T08:55:08.646Z,65.50
2023-02-09T08:57:43.947Z,65.36
2023-02-09T09:00:12.188Z,64.40
2023-02-09T09:02:38.989Z,64.41
2023-02-09T09:05:05.965Z,65.04
2023-02-09T09:07:33.031Z,63.74
2023-02-09T09:09:59.616Z,62.75
2023-02-09T09:12:26.144Z,63.09
2023-02-09T09:14:52.825Z,62.50
2023-02-09T09:17:19.664Z,62.49
2023-02-09T09:19:46.703Z,61.97
2023-02-09T09:22:13.364Z,61.44
2023-02-09T09:24:43.134Z,61.62
2023-02-09T09:27:10.921Z,60.56
2023-02-09T09:29:40.173Z,59.75
2023-02-09T09:32:08.243Z,60.26
2023-02-09T09:34:34.955Z,60.41
2023-02-09T09:37:01.554Z,59.75
2023-02-09T09:39:28.352Z,59.81
2023-02-09T09:42:00.790Z,59.33
2023-02-09T09:44:42.177Z,57.39
2023-02-09T09:47:16.004Z,57.83
2023-02-09T09:49:43.264Z,58.62
2023-02-09T09:52:28.914Z,56.65
2023-02-09T09:54:55.649Z,56.96
2023-02-09T09:57:26.666Z,57.12
2023-02-09T09:59:54.802Z,57.79
2023-02-09T10:02:27.354Z,59.77
2023-02-09T10:04:59.499Z,58.86
2023-02-09T10:07:31.797Z,58.83
2023-02-09T10:10:07.885Z,58.98
2023-02-09T10:12:51.205Z,58.80
2023-02-09T10:15:28.473Z,58.53
2023-02-09T10:17:57.022Z,57.94
2023-02-09T10:20:46.598Z,55.50
2023-02-09T10:23:21.158Z,55.22
2023-02-09T10:26:07.231Z,55.02
2023-02-09T10:28:46.296Z,55.09
2023-02-09T10:31:31.917Z,56.49
2023-02-09T10:34:04.552Z,55.53
2023-02-09T10:36:35.668Z,55.35
2023-02-09T10:39:11.082Z,54.02
2023-02-09T10:41:40.638Z,55.25
2023-02-09T10:44:21.872Z,52.81
2023-02-09T10:46:48.868Z,54.17
2023-02-09T10:49:36.123Z,54.09
2023-02-09T10:52:14.205Z,53.28
2023-02-09T10:54:49.734Z,53.98
2023-02-09T10:57:26.090Z,52.87
2023-02-09T10:59:55.435Z,52.28
2023-02-09T11:02:36.306Z,52.53
2023-02-09T11:05:23.545Z,52.02
2023-02-09T11:07:57.850Z,52.20
2023-02-09T11:10:27.364Z,53.49
2023-02-09T11:12:54.022Z,52.58
2023-02-09T11:15:26.888Z,53.26
2023-02-09T11:18:06.713Z,54.24
2023-02-09T11:20:44.376Z,53.80
2023-02-09T11:23:33.323Z,53.46
2023-02-09T11:26:24.064Z,53.20
2023-02-09T11:29:08.878Z,53.75
2023-02-09T11:31:50.141Z,54.14
2023-02-09T11:34:42.473Z,55.08
2023-02-09T11:37:24.304Z,54.08
2023-02-09T11:40:06.240Z,54.12
2023-02-09T11:42:47.134Z,54.76
2023-02-09T11:45:24.554Z,54.13
2023-02-09T11:48:04.366Z,53.61
2023-02-09T11:50:42.220Z,54.63
2023-02-09T11:53:47.470Z,54.21
2023-02-09T11:56:22.688Z,52.98
2023-02-09T11:59:05.098Z,51.74
2023-02-09T12:01:56.616Z,52.66
2023-02-09T12:04:47.993Z,52.97
2023-02-09T12:07:23.807Z,52.21
2023-02-09T12:10:01.013Z,51.63
2023-02-09T12:12:34.461Z,51.12
2023-02-09T12:15:25.961Z,50.71
2023-02-09T12:18:03.972Z,51.21
2023-02-09T12:20:36.814Z,51.11
2023-02-09T12:23:32.169Z,51.22
2023-02-09T12:26:17.104Z,50.72
2023-02-09T12:28:46.923Z,51.28
2023-02-09T12:31:26.084Z,51.75
2023-02-09T12:33:58.867Z,51.83
2023-02-09T12:36:30.156Z,51.31
2023-02-09T12:39:05.249Z,52.62
2023-02-09T12:41:32.201Z,52.79
2023-02-09T12:44:21.953Z,52.55
2023-02-09T12:46:55.700Z,52.57
2023-02-09T12:49:28.197Z,52.02
2023-02-09T12:52:12.707Z,52.15
2023-02-09T12:54:51.274Z,51.69
2023-02-09T12:57:20.582Z,50.68
2023-02-09T12:59:50.080Z,51.66
2023-02-09T13:02:46.461Z,50.78
2023-02-09T13:05:22.818Z,50.63
2023-02-09T13:08:15.864Z,51.19
2023-02-09T13:11:18.012Z,50.17
2023-02-09T13:13:55.023Z,50.28
2023-02-09T13:16:24.440Z,50.59
2023-02-09T13:19:04.309Z,50.83
2023-02-09T13:21:52.696Z,51.01
2023-02-09T13:24:23.962Z,49.67
2023-02-09T13:26:54.912Z,50.20
2023-02-09T13:29:23.178Z,50.23
2023-02-09T13:32:08.571Z,49.31
2023-02-09T13:34:51.674Z,51.87
2023-02-09T13:37:27.723Z,51.28
2023-02-09T13:39:57.890Z,52.14
2023-02-09T13:42:26.801Z,52.14
2023-02-09T13:44:55.956Z,53.67
2023-02-09T13:47:23.462Z,54.54
2023-02-09T13:50:03.963Z,54.89
2023-02-09T13:52:38.606Z,54.92
2023-02-09T13:55:17.415Z,54.76
2023-02-09T13:57:49.957Z,57.71
2023-02-09T14:00:22.824Z,57.62
2023-02-09T14:02:53.969Z,66.47
2023-02-09T14:05:42.419Z,68.27
2023-02-09T14:08:12.638Z,70.06
2023-02-09T14:10:43.273Z,71.67
2023-02-09T14:13:28.189Z,71.58
2023-02-09T14:16:08.378Z,73.15
2023-02-09T14:18:46.009Z,72.99
2023-02-09T14:21:15.194Z,73.91
2023-02-09T14:23:45.569Z,73.21
2023-02-09T14:26:15.402Z,72.96
2023-02-09T14:28:45.555Z,73.09
2023-02-09T14:31:22.633Z,72.88
2023-02-09T14:33:51.084Z,73.34
2023-02-09T14:36:22.296Z,74.65
2023-02-09T14:38:50.686Z,75.17
2023-02-09T14:41:19.279Z,76.07
2023-02-09T14:43:58.394Z,76.24
2023-02-09T14:46:25.063Z,76.18
2023-02-09T14:48:56.080Z,76.90
2023-02-09T14:51:23.152Z,76.16
2023-02-09T14:53:50.291Z,75.77
2023-02-09T14:56:30.211Z,77.10
2023-02-09T14:58:56.969Z,77.23
2023-02-09T15:01:23.707Z,76.24
2023-02-09T15:03:50.389Z,77.24
2023-02-09T15:06:17.102Z,77.22
2023-02-09T15:08:43.847Z,77.08
2023-02-09T15:11:42.721Z,76.54
2023-02-09T15:14:11.417Z,76.81
2023-02-09T15:16:38.142Z,76.98
2023-02-09T15:19:12.481Z,77.85
2023-02-09T15:21:39.111Z,77.84
2023-02-09T15:24:05.963Z,78.23
2023-02-09T15:26:35.887Z,78.21
2023-02-09T15:29:08.180Z,78.04
2023-02-09T15:31:34.780Z,78.90
2023-02-09T15:34:01.633Z,78.87
2023-02-09T15:36:28.551Z,79.32
2023-02-09T15:38:55.828Z,79.06
2023-02-09T15:41:41.035Z,79.06
2023-02-09T15:44:44.406Z,78.78
2023-02-09T15:47:29.488Z,78.04
2023-02-09T15:49:56.237Z,77.37
2023-02-09T15:52:23.248Z,76.91
2023-02-09T15:54:52.268Z,77.42
2023-02-09T15:57:19.027Z,78.07
2023-02-09T15:59:46.597Z,79.18
2023-02-09T16:02:14.674Z,80.69
2023-02-09T16:04:41.377Z,81.49
2023-02-09T16:07:13.115Z,81.73
2023-02-09T16:09:42.967Z,81.83
2023-02-09T16:12:12.968Z,82.02
2023-02-09T16:14:40.113Z,82.19
2023-02-09T16:17:07.970Z,82.99
2023-02-09T16:19:34.949Z,84.12
2023-02-09T16:22:04.664Z,84.49
2023-02-09T16:24:37.359Z,85.95
2023-02-09T16:27:14.884Z,87.07
2023-02-09T16:29:41.856Z,88.30
2023-02-09T16:32:20.280Z,88.97
2023-02-09T16:34:46.912Z,89.07
2023-02-09T16:37:32.059Z,88.66
2023-02-09T16:39:58.849Z,88.69
2023-02-09T16:42:25.841Z,90.24
2023-02-09T16:44:53.215Z,89.75
2023-02-09T16:47:23.628Z,89.42
2023-02-09T16:50:02.888Z,89.30
2023-02-09T16:52:30.615Z,88.52
2023-02-09T16:55:01.016Z,88.23
2023-02-09T16:57:29.022Z,88.17
2023-02-09T16:59:56.098Z,85.58
2023-02-09T17:02:33.637Z,85.00
2023-02-09T17:05:02.813Z,85.92
2023-02-09T17:07:37.505Z,87.59
2023-02-09T17:10:17.848Z,89.03
2023-02-09T17:12:44.924Z,90.60
2023-02-09T17:15:29.033Z,91.56
2023-02-09T17:18:01.948Z,91.97
2023-02-09T17:20:42.393Z,91.33
2023-02-09T17:23:17.850Z,90.00
2023-02-09T17:25:45.305Z,89.69
2023-02-09T17:28:12.776Z,89.36
2023-02-09T17:30:40.539Z,88.59
2023-02-09T17:33:10.751Z,88.71
2023-02-09T17:38:30.408Z,89.23
2023-02-09T17:41:00.204Z,89.92
2023-02-09T17:43:33.277Z,90.43
2023-02-09T17:45:59.829Z,90.85
2023-02-09T17:48:26.318Z,91.36
2023-02-09T17:50:58.326Z,91.31
2023-02-09T17:53:27.094Z,91.52
2023-02-09T17:55:56.362Z,92.12
2023-02-09T17:58:24.142Z,92.64
2023-02-09T18:00:55.982Z,93.03
2023-02-09T18:03:24.805Z,93.85
2023-02-09T18:05:58.621Z,93.77
2023-02-09T18:08:27.523Z,93.90
2023-02-09T18:10:57.865Z,93.69
2023-02-09T18:13:25.865Z,93.13
2023-02-09T18:15:52.427Z,93.08
2023-02-09T18:18:18.981Z,93.36
2023-02-09T18:20:45.530Z,94.07
2023-02-09T18:23:15.899Z,94.59
2023-02-09T18:25:42.703Z,94.77
2023-02-09T18:28:09.377Z,93.96
2023-02-09T18:30:38.504Z,93.18
2023-02-09T18:33:06.442Z,93.16
2023-02-09T18:35:38.775Z,93.32
2023-02-09T18:38:09.268Z,93.41
2023-02-09T18:40:36.934Z,93.50
2023-02-09T18:43:06.164Z,93.92
2023-02-09T18:45:33.561Z,93.54
2023-02-09T18:48:00.878Z,93.35
2023-02-09T18:50:30.928Z,92.75
2023-02-09T18:53:00.785Z,93.50
2023-02-09T18:55:30.770Z,93.58
2023-02-09T18:57:59.916Z,93.21
2023-02-09T19:00:27.055Z,93.35
2023-02-09T19:02:57.893Z,93.57
2023-02-09T19:05:27.091Z,94.00
2023-02-09T19:07:55.421Z,93.98
2023-02-09T19:10:22.924Z,94.31
2023-02-09T19:12:49.472Z,94.39
2023-02-09T19:15:21.001Z,94.32
2023-02-09T19:17:47.557Z,93.67
2023-02-09T19:20:20.959Z,93.59
2023-02-09T19:22:51.316Z,94.00
2023-02-09T19:25:26.186Z,93.83
2023-02-09T19:27:53.653Z,94.48
2023-02-09T19:30:26.478Z,94.05
2023-02-09T19:33:04.848Z,93.75
2023-02-09T19:35:31.931Z,94.06
2023-02-09T19:37:58.448Z,94.06
2023-02-09T19:40:35.909Z,93.29
2023-02-09T19:43:04.646Z,92.40
2023-02-09T19:45:36.274Z,91.56
2023-02-09T19:48:04.476Z,90.74
2023-02-09T19:50:31.015Z,90.52
2023-02-09T19:53:03.467Z,89.92
2023-02-09T19:55:29.970Z,89.50
2023-02-09T19:57:56.433Z,89.84
2023-02-09T20:00:22.876Z,89.58
2023-02-09T20:02:49.467Z,88.31
2023-02-09T20:05:16.683Z,87.54
2023-02-09T20:07:48.009Z,86.60
2023-02-09T20:10:14.626Z,86.87
2023-02-09T20:12:41.355Z,87.12
2023-02-09T20:15:07.963Z,86.72
2023-02-09T20:17:34.436Z,87.25
2023-02-09T20:20:00.903Z,87.33
2023-02-09T20:22:34.730Z,88.24
2023-02-09T20:25:01.209Z,86.87
2023-02-09T20:27:30.568Z,86.61
2023-02-09T20:30:01.268Z,86.53
2023-02-09T20:32:36.711Z,86.48
2023-02-09T20:35:04.751Z,85.43
2023-02-09T20:37:31.626Z,85.73
2023-02-09T20:39:58.254Z,85.98
2023-02-09T20:43:03.230Z,85.56
2023-02-09T20:45:48.605Z,85.50
2023-02-09T20:48:15.253Z,85.07
2023-02-09T20:50:41.736Z,85.18
2023-02-09T20:53:08.165Z,84.63
2023-02-09T20:55:34.631Z,84.32
2023-02-09T20:58:01.238Z,84.71
2023-02-09T21:00:27.917Z,85.33
2023-02-09T21:02:54.464Z,84.31
2023-02-09T21:05:20.978Z,83.67
2023-02-09T21:07:52.734Z,83.59
2023-02-09T21:10:21.142Z,82.96
2023-02-09T21:12:47.935Z,82.15
2023-02-09T21:15:14.844Z,82.58
2023-02-09T21:17:47.500Z,82.15
2023-02-09T21:20:19.619Z,82.21
2023-02-09T21:22:46.156Z,82.64
2023-02-09T21:25:13.826Z,82.27
2023-02-09T21:27:40.356Z,81.49
2023-02-09T21:30:07.331Z,82.10
2023-02-09T21:32:39.533Z,82.34
2023-02-09T21:35:10.189Z,82.06
2023-02-09T21:37:42.879Z,81.29
2023-02-09T21:40:11.307Z,80.83
2023-02-09T21:42:42.941Z,80.56
2023-02-09T21:45:10.036Z,80.02
2023-02-09T21:47:38.726Z,80.44
2023-02-09T21:50:08.140Z,80.14
2023-02-09T21:52:35.158Z,80.30
2023-02-09T21:55:01.879Z,79.58
2023-02-09T21:57:28.424Z,79.38
2023-02-09T21:59:55.321Z,79.82
2023-02-09T22:02:21.773Z,78.96
2023-02-09T22:04:50.206Z,79.29
2023-02-09T22:07:16.782Z,78.73
2023-02-09T22:09:43.247Z,78.57
2023-02-09T22:12:09.988Z,78.97
2023-02-09T22:14:38.763Z,79.07
2023-02-09T22:17:05.293Z,79.29
2023-02-09T22:19:31.803Z,79.02
2023-02-09T22:21:58.276Z,78.17
2023-02-09T22:24:25.296Z,78.43
2023-02-09T22:26:52.103Z,78.43
2023-02-09T22:29:18.753Z,79.15
2023-02-09T22:31:45.335Z,79.01
2023-02-09T22:34:12.125Z,78.42
2023-02-09T22:36:39.793Z,78.77
2023-02-09T22:39:07.422Z,79.04
2023-02-09T22:41:34.123Z,78.82
2023-02-09T22:44:03.405Z,78.47
2023-02-09T22:46:38.429Z,77.75
2023-02-09T22:49:08.144Z,78.27
2023-02-09T22:51:39.799Z,78.27
2023-02-09T22:54:06.620Z,78.31
2023-02-09T22:56:33.509Z,78.32
2023-02-09T22:59:08.191Z,78.02
2023-02-09T23:01:34.797Z,77.94
2023-02-09T23:04:01.518Z,78.49
2023-02-09T23:06:30.024Z,77.71
2023-02-09T23:09:00.664Z,78.12
2023-02-09T23:11:30.666Z,77.84
2023-02-09T23:14:10.035Z,78.73
2023-02-09T23:16:41.182Z,79.17
2023-02-09T23:19:11.113Z,79.59
2023-02-09T23:21:39.916Z,79.31
2023-02-09T23:24:07.202Z,79.86
2023-02-09T23:26:34.405Z,79.97
2023-02-09T23:29:03.148Z,80.21
2023-02-09T23:31:29.715Z,80.24
2023-02-09T23:33:56.341Z,80.73
2023-02-09T23:36:28.392Z,80.12
2023-02-09T23:38:57.588Z,80.46
2023-02-09T23:41:25.012Z,80.48
2023-02-09T23:43:52.603Z,80.36
2023-02-09T23:46:21.993Z,80.11
2023-02-09T23:48:49.274Z,80.65
2023-02-09T23:51:24.359Z,81.07
2023-02-09T23:53:50.809Z,81.01
2023-02-09T23:56:18.100Z,80.20
2023-02-09T23:58:47.275Z,80.04
